sensor_id;sensor_type;location;lat;lon;timestamp;P1;durP1;ratioP1;P2;durP2;ratioP2
4359;SDS011;2193;47.980;7.660;2022-08-18T00:02:23;14.00;;;10.90;;
4359;SDS011;2193;47.980;7.660;2022-08-18T00:04:50;13.90;;;10.73;;
4359;SDS011;2193;47.980;7.660;2022-08-18T00:07:17;13.03;;;10.37;;
4359;SDS011;2193;47.980;7.660;2022-08-18T00:09:42;13.67;;;10.40;;
4359;SDS011;2193;47.980;7.660;2022-08-18T00:12:18;12.43;;;10.50;;
4359;SDS011;2193;47.980;7.660;2022-08-18T00:14:44;11.80;;;10.17;;
4359;SDS011;2193;47.980;7.660;2022-08-18T00:17:09;13.50;;;10.10;;
4359;SDS011;2193;47.980;7.660;2022-08-18T00:19:35;15.83;;;10.70;;
4359;SDS011;2193;47.980;7.660;2022-08-18T00:22:00;17.33;;;10.83;;
4359;SDS011;2193;47.980;7.660;2022-08-18T00:24:25;14.00;;;12.30;;
4359;SDS011;2193;47.980;7.660;2022-08-18T00:26:50;11.97;;;9.80;;
4359;SDS011;2193;47.980;7.660;2022-08-18T00:29:16;12.57;;;10.00;;
4359;SDS011;2193;47.980;7.660;2022-08-18T00:31:41;16.60;;;10.10;;
4359;SDS011;2193;47.980;7.660;2022-08-18T00:34:07;15.67;;;11.03;;
4359;SDS011;2193;47.980;7.660;2022-08-18T00:36:32;14.93;;;12.00;;
4359;SDS011;2193;47.980;7.660;2022-08-18T00:38:58;17.23;;;11.70;;
4359;SDS011;2193;47.980;7.660;2022-08-18T00:41:24;16.10;;;11.50;;
4359;SDS011;2193;47.980;7.660;2022-08-18T00:43:50;17.63;;;11.87;;
4359;SDS011;2193;47.980;7.660;2022-08-18T00:46:37;19.10;;;12.30;;
4359;SDS011;2193;47.980;7.660;2022-08-18T00:49:02;19.67;;;12.53;;
4359;SDS011;2193;47.980;7.660;2022-08-18T00:51:31;17.70;;;11.43;;
4359;SDS011;2193;47.980;7.660;2022-08-18T00:56:30;16.63;;;11.10;;
4359;SDS011;2193;47.980;7.660;2022-08-18T00:58:59;16.90;;;12.63;;
4359;SDS011;2193;47.980;7.660;2022-08-18T01:01:25;18.70;;;12.00;;
4359;SDS011;2193;47.980;7.660;2022-08-18T01:03:53;16.30;;;11.73;;
4359;SDS011;2193;47.980;7.660;2022-08-18T01:08:46;19.87;;;11.00;;
4359;SDS011;2193;47.980;7.660;2022-08-18T01:11:12;15.63;;;10.80;;
4359;SDS011;2193;47.980;7.660;2022-08-18T01:13:37;12.67;;;10.73;;
4359;SDS011;2193;47.980;7.660;2022-08-18T01:16:05;15.07;;;10.67;;
4359;SDS011;2193;47.980;7.660;2022-08-18T01:18:50;12.70;;;10.03;;
4359;SDS011;2193;47.980;7.660;2022-08-18T01:21:35;11.53;;;9.47;;
4359;SDS011;2193;47.980;7.660;2022-08-18T01:24:16;12.37;;;9.67;;
4359;SDS011;2193;47.980;7.660;2022-08-18T01:26:42;11.70;;;9.40;;
4359;SDS011;2193;47.980;7.660;2022-08-18T01:29:10;11.90;;;9.73;;
4359;SDS011;2193;47.980;7.660;2022-08-18T01:31:37;13.63;;;10.93;;
4359;SDS011;2193;47.980;7.660;2022-08-18T01:34:08;13.27;;;10.30;;
4359;SDS011;2193;47.980;7.660;2022-08-18T01:36:34;13.70;;;10.03;;
4359;SDS011;2193;47.980;7.660;2022-08-18T01:39:02;13.30;;;9.70;;
4359;SDS011;2193;47.980;7.660;2022-08-18T01:41:28;12.07;;;9.50;;
4359;SDS011;2193;47.980;7.660;2022-08-18T01:43:53;12.63;;;10.07;;
4359;SDS011;2193;47.980;7.660;2022-08-18T01:46:19;12.87;;;10.43;;
4359;SDS011;2193;47.980;7.660;2022-08-18T01:48:44;16.70;;;10.33;;
4359;SDS011;2193;47.980;7.660;2022-08-18T01:51:10;14.23;;;9.87;;
4359;SDS011;2193;47.980;7.660;2022-08-18T01:53:37;12.63;;;9.87;;
4359;SDS011;2193;47.980;7.660;2022-08-18T01:56:02;13.80;;;9.77;;
4359;SDS011;2193;47.980;7.660;2022-08-18T01:58:32;11.70;;;9.63;;
4359;SDS011;2193;47.980;7.660;2022-08-18T02:00:57;11.80;;;10.00;;
4359;SDS011;2193;47.980;7.660;2022-08-18T02:03:25;12.60;;;10.10;;
4359;SDS011;2193;47.980;7.660;2022-08-18T02:05:54;23.60;;;10.70;;
4359;SDS011;2193;47.980;7.660;2022-08-18T02:08:19;12.53;;;9.57;;
4359;SDS011;2193;47.980;7.660;2022-08-18T02:10:45;12.87;;;8.37;;
4359;SDS011;2193;47.980;7.660;2022-08-18T02:13:11;10.43;;;8.03;;
4359;SDS011;2193;47.980;7.660;2022-08-18T02:15:37;9.83;;;7.50;;
4359;SDS011;2193;47.980;7.660;2022-08-18T02:18:02;9.47;;;7.77;;
4359;SDS011;2193;47.980;7.660;2022-08-18T02:20:27;8.70;;;7.70;;
4359;SDS011;2193;47.980;7.660;2022-08-18T02:22:52;11.73;;;8.13;;
4359;SDS011;2193;47.980;7.660;2022-08-18T02:25:18;10.97;;;7.50;;
4359;SDS011;2193;47.980;7.660;2022-08-18T02:27:43;8.37;;;7.53;;
4359;SDS011;2193;47.980;7.660;2022-08-18T02:30:11;13.23;;;10.03;;
4359;SDS011;2193;47.980;7.660;2022-08-18T02:32:36;14.03;;;9.37;;
4359;SDS011;2193;47.980;7.660;2022-08-18T02:35:02;13.47;;;8.70;;
4359;SDS011;2193;47.980;7.660;2022-08-18T02:37:27;11.83;;;8.03;;
4359;SDS011;2193;47.980;7.660;2022-08-18T02:39:52;15.70;;;8.90;;
4359;SDS011;2193;47.980;7.660;2022-08-18T02:42:17;13.87;;;9.60;;
4359;SDS011;2193;47.980;7.660;2022-08-18T02:44:43;10.63;;;8.23;;
4359;SDS011;2193;47.980;7.660;2022-08-18T02:47:08;11.00;;;8.23;;
4359;SDS011;2193;47.980;7.660;2022-08-18T02:49:34;19.00;;;9.20;;
4359;SDS011;2193;47.980;7.660;2022-08-18T02:52:00;15.67;;;9.40;;
4359;SDS011;2193;47.980;7.660;2022-08-18T02:54:26;13.77;;;9.80;;
4359;SDS011;2193;47.980;7.660;2022-08-18T02:56:51;15.30;;;9.20;;
4359;SDS011;2193;47.980;7.660;2022-08-18T02:59:20;18.30;;;10.33;;
4359;SDS011;2193;47.980;7.660;2022-08-18T03:01:47;14.63;;;10.37;;
4359;SDS011;2193;47.980;7.660;2022-08-18T03:04:16;13.10;;;9.90;;
4359;SDS011;2193;47.980;7.660;2022-08-18T03:06:43;13.40;;;10.17;;
4359;SDS011;2193;47.980;7.660;2022-08-18T03:09:09;11.13;;;8.30;;
4359;SDS011;2193;47.980;7.660;2022-08-18T03:11:35;10.30;;;7.27;;
4359;SDS011;2193;47.980;7.660;2022-08-18T03:14:00;13.70;;;8.33;;
4359;SDS011;2193;47.980;7.660;2022-08-18T03:16:26;8.90;;;8.00;;
4359;SDS011;2193;47.980;7.660;2022-08-18T03:18:52;10.10;;;7.63;;
4359;SDS011;2193;47.980;7.660;2022-08-18T03:21:19;11.00;;;8.30;;
4359;SDS011;2193;47.980;7.660;2022-08-18T03:23:47;11.33;;;8.03;;
4359;SDS011;2193;47.980;7.660;2022-08-18T03:26:14;10.87;;;7.70;;
4359;SDS011;2193;47.980;7.660;2022-08-18T03:28:41;10.17;;;8.00;;
4359;SDS011;2193;47.980;7.660;2022-08-18T03:31:07;11.97;;;8.90;;
4359;SDS011;2193;47.980;7.660;2022-08-18T03:33:33;10.70;;;8.23;;
4359;SDS011;2193;47.980;7.660;2022-08-18T03:36:04;9.67;;;8.67;;
4359;SDS011;2193;47.980;7.660;2022-08-18T03:38:29;10.73;;;8.93;;
4359;SDS011;2193;47.980;7.660;2022-08-18T03:40:55;11.60;;;8.97;;
4359;SDS011;2193;47.980;7.660;2022-08-18T03:43:20;12.97;;;8.73;;
4359;SDS011;2193;47.980;7.660;2022-08-18T03:45:45;11.83;;;8.67;;
4359;SDS011;2193;47.980;7.660;2022-08-18T03:48:11;9.53;;;7.70;;
4359;SDS011;2193;47.980;7.660;2022-08-18T03:50:36;12.63;;;8.00;;
4359;SDS011;2193;47.980;7.660;2022-08-18T03:53:02;10.70;;;8.10;;
4359;SDS011;2193;47.980;7.660;2022-08-18T03:55:29;9.93;;;8.00;;
4359;SDS011;2193;47.980;7.660;2022-08-18T03:57:58;10.00;;;7.30;;
4359;SDS011;2193;47.980;7.660;2022-08-18T04:00:26;8.67;;;7.70;;
4359;SDS011;2193;47.980;7.660;2022-08-18T04:02:51;12.00;;;7.03;;
4359;SDS011;2193;47.980;7.660;2022-08-18T04:05:17;9.40;;;7.40;;
4359;SDS011;2193;47.980;7.660;2022-08-18T04:07:42;7.70;;;6.80;;
4359;SDS011;2193;47.980;7.660;2022-08-18T04:10:07;8.80;;;7.80;;
4359;SDS011;2193;47.980;7.660;2022-08-18T04:12:33;8.53;;;7.37;;
4359;SDS011;2193;47.980;7.660;2022-08-18T04:14:58;13.47;;;8.40;;
4359;SDS011;2193;47.980;7.660;2022-08-18T04:17:23;9.93;;;8.40;;
4359;SDS011;2193;47.980;7.660;2022-08-18T04:19:49;10.37;;;8.30;;
4359;SDS011;2193;47.980;7.660;2022-08-18T04:22:15;10.67;;;8.67;;
4359;SDS011;2193;47.980;7.660;2022-08-18T04:24:41;9.60;;;7.93;;
4359;SDS011;2193;47.980;7.660;2022-08-18T04:27:07;13.20;;;7.80;;
4359;SDS011;2193;47.980;7.660;2022-08-18T04:29:32;8.93;;;7.80;;
4359;SDS011;2193;47.980;7.660;2022-08-18T04:31:59;8.40;;;6.90;;
4359;SDS011;2193;47.980;7.660;2022-08-18T04:34:24;8.47;;;7.30;;
4359;SDS011;2193;47.980;7.660;2022-08-18T04:36:50;10.37;;;7.50;;
4359;SDS011;2193;47.980;7.660;2022-08-18T04:39:18;7.90;;;6.90;;
4359;SDS011;2193;47.980;7.660;2022-08-18T04:41:44;7.80;;;6.50;;
4359;SDS011;2193;47.980;7.660;2022-08-18T04:44:10;11.80;;;7.47;;
4359;SDS011;2193;47.980;7.660;2022-08-18T04:46:40;7.57;;;6.80;;
4359;SDS011;2193;47.980;7.660;2022-08-18T04:49:06;7.80;;;7.10;;
4359;SDS011;2193;47.980;7.660;2022-08-18T04:51:33;10.93;;;7.10;;
4359;SDS011;2193;47.980;7.660;2022-08-18T04:53:58;8.10;;;7.30;;
4359;SDS011;2193;47.980;7.660;2022-08-18T04:56:30;7.30;;;6.57;;
4359;SDS011;2193;47.980;7.660;2022-08-18T04:58:58;8.37;;;7.57;;
4359;SDS011;2193;47.980;7.660;2022-08-18T05:01:25;8.07;;;7.17;;
4359;SDS011;2193;47.980;7.660;2022-08-18T05:03:51;11.60;;;7.77;;
4359;SDS011;2193;47.980;7.660;2022-08-18T05:06:17;8.73;;;7.83;;
4359;SDS011;2193;47.980;7.660;2022-08-18T05:08:43;10.20;;;8.20;;
4359;SDS011;2193;47.980;7.660;2022-08-18T05:11:08;8.93;;;7.50;;
4359;SDS011;2193;47.980;7.660;2022-08-18T05:13:34;10.30;;;7.80;;
4359;SDS011;2193;47.980;7.660;2022-08-18T05:15:59;9.63;;;8.40;;
4359;SDS011;2193;47.980;7.660;2022-08-18T05:18:28;12.10;;;8.23;;
4359;SDS011;2193;47.980;7.660;2022-08-18T05:20:54;12.17;;;8.77;;
4359;SDS011;2193;47.980;7.660;2022-08-18T05:23:19;10.63;;;8.90;;
4359;SDS011;2193;47.980;7.660;2022-08-18T05:25:44;13.67;;;10.40;;
4359;SDS011;2193;47.980;7.660;2022-08-18T05:28:10;14.37;;;10.37;;
4359;SDS011;2193;47.980;7.660;2022-08-18T05:30:35;13.40;;;10.33;;
4359;SDS011;2193;47.980;7.660;2022-08-18T05:33:01;12.00;;;10.20;;
4359;SDS011;2193;47.980;7.660;2022-08-18T05:35:35;12.13;;;10.40;;
4359;SDS011;2193;47.980;7.660;2022-08-18T05:40:29;16.77;;;11.60;;
4359;SDS011;2193;47.980;7.660;2022-08-18T05:42:55;14.13;;;11.10;;
4359;SDS011;2193;47.980;7.660;2022-08-18T05:45:22;12.80;;;10.60;;
4359;SDS011;2193;47.980;7.660;2022-08-18T05:47:48;17.60;;;11.60;;
4359;SDS011;2193;47.980;7.660;2022-08-18T05:50:16;12.27;;;10.67;;
4359;SDS011;2193;47.980;7.660;2022-08-18T05:52:43;18.97;;;11.27;;
4359;SDS011;2193;47.980;7.660;2022-08-18T05:55:14;16.80;;;11.37;;
4359;SDS011;2193;47.980;7.660;2022-08-18T05:58:16;17.07;;;11.90;;
4359;SDS011;2193;47.980;7.660;2022-08-18T06:00:44;20.73;;;12.67;;
4359;SDS011;2193;47.980;7.660;2022-08-18T06:03:12;19.13;;;12.47;;
4359;SDS011;2193;47.980;7.660;2022-08-18T06:05:43;19.30;;;13.07;;
4359;SDS011;2193;47.980;7.660;2022-08-18T06:08:11;16.30;;;13.43;;
4359;SDS011;2193;47.980;7.660;2022-08-18T06:10:37;15.40;;;12.47;;
4359;SDS011;2193;47.980;7.660;2022-08-18T06:13:03;15.87;;;11.70;;
4359;SDS011;2193;47.980;7.660;2022-08-18T06:15:31;18.40;;;12.60;;
4359;SDS011;2193;47.980;7.660;2022-08-18T06:18:12;16.37;;;12.90;;
4359;SDS011;2193;47.980;7.660;2022-08-18T06:25:41;26.93;;;13.37;;
4359;SDS011;2193;47.980;7.660;2022-08-18T06:28:12;19.17;;;11.97;;
4359;SDS011;2193;47.980;7.660;2022-08-18T06:30:53;17.63;;;13.20;;
4359;SDS011;2193;47.980;7.660;2022-08-18T06:35:47;19.83;;;12.70;;
4359;SDS011;2193;47.980;7.660;2022-08-18T06:41:02;14.20;;;11.20;;
4359;SDS011;2193;47.980;7.660;2022-08-18T06:43:32;14.43;;;10.97;;
4359;SDS011;2193;47.980;7.660;2022-08-18T06:45:59;13.70;;;11.37;;
4359;SDS011;2193;47.980;7.660;2022-08-18T06:50:55;20.80;;;11.70;;
4359;SDS011;2193;47.980;7.660;2022-08-18T06:53:21;13.17;;;10.63;;
4359;SDS011;2193;47.980;7.660;2022-08-18T06:55:48;15.93;;;11.03;;
4359;SDS011;2193;47.980;7.660;2022-08-18T07:03:18;13.43;;;10.50;;
4359;SDS011;2193;47.980;7.660;2022-08-18T07:10:48;16.17;;;10.10;;
4359;SDS011;2193;47.980;7.660;2022-08-18T07:13:15;15.00;;;11.20;;
4359;SDS011;2193;47.980;7.660;2022-08-18T07:15:41;16.97;;;11.43;;
4359;SDS011;2193;47.980;7.660;2022-08-18T07:18:09;16.27;;;11.70;;
4359;SDS011;2193;47.980;7.660;2022-08-18T07:20:56;15.43;;;10.60;;
4359;SDS011;2193;47.980;7.660;2022-08-18T07:25:59;15.37;;;10.83;;
4359;SDS011;2193;47.980;7.660;2022-08-18T07:28:28;14.70;;;11.03;;
4359;SDS011;2193;47.980;7.660;2022-08-18T07:31:04;13.43;;;10.80;;
4359;SDS011;2193;47.980;7.660;2022-08-18T07:33:32;11.80;;;10.10;;
4359;SDS011;2193;47.980;7.660;2022-08-18T07:35:57;11.83;;;9.60;;
4359;SDS011;2193;47.980;7.660;2022-08-18T07:43:40;10.97;;;9.80;;
4359;SDS011;2193;47.980;7.660;2022-08-18T07:46:14;14.23;;;11.30;;
4359;SDS011;2193;47.980;7.660;2022-08-18T07:48:40;14.83;;;10.77;;
4359;SDS011;2193;47.980;7.660;2022-08-18T07:56:22;13.63;;;11.70;;
4359;SDS011;2193;47.980;7.660;2022-08-18T07:58:55;11.93;;;10.60;;
4359;SDS011;2193;47.980;7.660;2022-08-18T08:01:33;17.80;;;11.30;;
4359;SDS011;2193;47.980;7.660;2022-08-18T08:04:23;15.60;;;12.10;;
4359;SDS011;2193;47.980;7.660;2022-08-18T08:06:53;14.03;;;11.67;;
4359;SDS011;2193;47.980;7.660;2022-08-18T08:09:28;13.53;;;11.27;;
4359;SDS011;2193;47.980;7.660;2022-08-18T08:12:15;20.47;;;12.00;;
4359;SDS011;2193;47.980;7.660;2022-08-18T08:14:46;13.13;;;10.83;;
4359;SDS011;2193;47.980;7.660;2022-08-18T08:22:30;15.47;;;11.30;;
4359;SDS011;2193;47.980;7.660;2022-08-18T08:30:11;13.17;;;11.40;;
4359;SDS011;2193;47.980;7.660;2022-08-18T08:35:12;12.77;;;11.47;;
4359;SDS011;2193;47.980;7.660;2022-08-18T08:37:40;16.27;;;12.47;;
4359;SDS011;2193;47.980;7.660;2022-08-18T08:40:12;14.87;;;11.70;;
4359;SDS011;2193;47.980;7.660;2022-08-18T08:45:20;13.43;;;11.73;;
4359;SDS011;2193;47.980;7.660;2022-08-18T08:47:53;14.37;;;11.60;;
4359;SDS011;2193;47.980;7.660;2022-08-18T08:50:20;15.90;;;11.77;;
4359;SDS011;2193;47.980;7.660;2022-08-18T08:57:46;12.50;;;11.17;;
4359;SDS011;2193;47.980;7.660;2022-08-18T09:00:13;17.97;;;12.10;;
4359;SDS011;2193;47.980;7.660;2022-08-18T09:02:43;14.33;;;12.20;;
4359;SDS011;2193;47.980;7.660;2022-08-18T09:05:17;17.90;;;12.33;;
4359;SDS011;2193;47.980;7.660;2022-08-18T09:21:04;16.87;;;11.63;;
4359;SDS011;2193;47.980;7.660;2022-08-18T09:23:33;15.20;;;12.10;;
4359;SDS011;2193;47.980;7.660;2022-08-18T09:26:20;14.83;;;12.30;;
4359;SDS011;2193;47.980;7.660;2022-08-18T09:28:55;15.47;;;12.13;;
4359;SDS011;2193;47.980;7.660;2022-08-18T09:31:22;19.57;;;13.50;;
4359;SDS011;2193;47.980;7.660;2022-08-18T09:34:00;15.30;;;12.10;;
4359;SDS011;2193;47.980;7.660;2022-08-18T09:36:52;19.93;;;12.77;;
4359;SDS011;2193;47.980;7.660;2022-08-18T09:39:32;14.30;;;11.63;;
4359;SDS011;2193;47.980;7.660;2022-08-18T09:42:25;15.30;;;13.50;;
4359;SDS011;2193;47.980;7.660;2022-08-18T09:54:51;16.83;;;12.33;;
4359;SDS011;2193;47.980;7.660;2022-08-18T09:57:19;15.80;;;12.10;;
4359;SDS011;2193;47.980;7.660;2022-08-18T10:07:42;13.87;;;8.20;;
4359;SDS011;2193;47.980;7.660;2022-08-18T10:10:11;17.30;;;9.30;;
4359;SDS011;2193;47.980;7.660;2022-08-18T10:12:42;12.33;;;9.43;;
4359;SDS011;2193;47.980;7.660;2022-08-18T10:15:21;16.43;;;8.93;;
4359;SDS011;2193;47.980;7.660;2022-08-18T10:20:41;11.63;;;8.83;;
4359;SDS011;2193;47.980;7.660;2022-08-18T10:23:12;10.87;;;8.23;;
4359;SDS011;2193;47.980;7.660;2022-08-18T10:25:57;12.30;;;9.60;;
4359;SDS011;2193;47.980;7.660;2022-08-18T10:31:06;9.33;;;7.93;;
4359;SDS011;2193;47.980;7.660;2022-08-18T10:36:31;13.63;;;9.10;;
4359;SDS011;2193;47.980;7.660;2022-08-18T10:38:57;8.23;;;7.43;;
4359;SDS011;2193;47.980;7.660;2022-08-18T10:41:24;14.33;;;9.17;;
4359;SDS011;2193;47.980;7.660;2022-08-18T10:43:51;12.13;;;9.83;;
4359;SDS011;2193;47.980;7.660;2022-08-18T10:46:17;13.37;;;9.33;;
4359;SDS011;2193;47.980;7.660;2022-08-18T10:48:43;15.40;;;9.40;;
4359;SDS011;2193;47.980;7.660;2022-08-18T10:51:28;9.87;;;8.27;;
4359;SDS011;2193;47.980;7.660;2022-08-18T10:54:39;7.27;;;6.47;;
4359;SDS011;2193;47.980;7.660;2022-08-18T10:56:54;9.13;;;6.90;;
4359;SDS011;2193;47.980;7.660;2022-08-18T11:04:46;12.90;;;8.90;;
4359;SDS011;2193;47.980;7.660;2022-08-18T11:07:32;13.80;;;9.10;;
4359;SDS011;2193;47.980;7.660;2022-08-18T11:09:57;17.20;;;11.50;;
4359;SDS011;2193;47.980;7.660;2022-08-18T11:17:38;17.43;;;10.43;;
4359;SDS011;2193;47.980;7.660;2022-08-18T11:20:06;13.80;;;8.47;;
4359;SDS011;2193;47.980;7.660;2022-08-18T11:22:33;15.27;;;9.30;;
4359;SDS011;2193;47.980;7.660;2022-08-18T11:25:00;12.87;;;8.83;;
4359;SDS011;2193;47.980;7.660;2022-08-18T11:27:31;13.40;;;9.13;;
4359;SDS011;2193;47.980;7.660;2022-08-18T11:29:58;11.63;;;8.73;;
4359;SDS011;2193;47.980;7.660;2022-08-18T11:32:31;11.60;;;8.53;;
4359;SDS011;2193;47.980;7.660;2022-08-18T11:39:48;8.80;;;7.43;;
4359;SDS011;2193;47.980;7.660;2022-08-18T11:42:15;10.83;;;7.40;;
4359;SDS011;2193;47.980;7.660;2022-08-18T11:44:41;8.33;;;7.40;;
4359;SDS011;2193;47.980;7.660;2022-08-18T11:47:08;8.00;;;7.03;;
4359;SDS011;2193;47.980;7.660;2022-08-18T11:49:33;12.20;;;9.40;;
4359;SDS011;2193;47.980;7.660;2022-08-18T11:52:02;12.67;;;9.50;;
4359;SDS011;2193;47.980;7.660;2022-08-18T11:54:42;9.20;;;8.30;;
4359;SDS011;2193;47.980;7.660;2022-08-18T11:57:28;8.20;;;7.40;;
4359;SDS011;2193;47.980;7.660;2022-08-18T11:59:54;11.87;;;8.80;;
4359;SDS011;2193;47.980;7.660;2022-08-18T12:02:20;13.30;;;8.00;;
4359;SDS011;2193;47.980;7.660;2022-08-18T12:04:48;10.27;;;7.30;;
4359;SDS011;2193;47.980;7.660;2022-08-18T12:07:15;9.47;;;7.50;;
4359;SDS011;2193;47.980;7.660;2022-08-18T12:09:47;7.27;;;6.23;;
4359;SDS011;2193;47.980;7.660;2022-08-18T12:12:24;9.77;;;7.93;;
4359;SDS011;2193;47.980;7.660;2022-08-18T12:17:18;8.80;;;7.23;;
4359;SDS011;2193;47.980;7.660;2022-08-18T12:19:43;8.13;;;7.33;;
4359;SDS011;2193;47.980;7.660;2022-08-18T12:22:13;9.00;;;7.90;;
4359;SDS011;2193;47.980;7.660;2022-08-18T12:24:39;9.00;;;7.17;;
4359;SDS011;2193;47.980;7.660;2022-08-18T12:27:05;7.93;;;7.13;;
4359;SDS011;2193;47.980;7.660;2022-08-18T12:29:30;8.73;;;7.90;;
4359;SDS011;2193;47.980;7.660;2022-08-18T12:31:55;8.50;;;7.70;;
4359;SDS011;2193;47.980;7.660;2022-08-18T12:34:22;9.07;;;8.17;;
4359;SDS011;2193;47.980;7.660;2022-08-18T12:36:49;11.43;;;8.20;;
4359;SDS011;2193;47.980;7.660;2022-08-18T12:39:14;8.43;;;7.50;;
4359;SDS011;2193;47.980;7.660;2022-08-18T12:41:39;7.90;;;7.20;;
4359;SDS011;2193;47.980;7.660;2022-08-18T12:44:05;10.13;;;7.43;;
4359;SDS011;2193;47.980;7.660;2022-08-18T12:46:30;9.53;;;7.67;;
4359;SDS011;2193;47.980;7.660;2022-08-18T12:48:55;10.03;;;7.70;;
4359;SDS011;2193;47.980;7.660;2022-08-18T12:51:21;10.03;;;7.20;;
4359;SDS011;2193;47.980;7.660;2022-08-18T12:53:46;9.63;;;7.20;;
4359;SDS011;2193;47.980;7.660;2022-08-18T12:56:20;7.97;;;7.17;;
4359;SDS011;2193;47.980;7.660;2022-08-18T12:58:46;8.27;;;7.57;;
4359;SDS011;2193;47.980;7.660;2022-08-18T13:01:11;9.17;;;8.17;;
4359;SDS011;2193;47.980;7.660;2022-08-18T13:03:37;9.53;;;7.73;;
4359;SDS011;2193;47.980;7.660;2022-08-18T13:06:02;10.77;;;7.73;;
4359;SDS011;2193;47.980;7.660;2022-08-18T13:08:27;9.70;;;8.80;;
4359;SDS011;2193;47.980;7.660;2022-08-18T13:10:52;10.20;;;9.20;;
4359;SDS011;2193;47.980;7.660;2022-08-18T13:13:18;10.70;;;9.43;;
4359;SDS011;2193;47.980;7.660;2022-08-18T13:15:44;11.37;;;8.97;;
4359;SDS011;2193;47.980;7.660;2022-08-18T13:18:10;9.73;;;8.47;;
4359;SDS011;2193;47.980;7.660;2022-08-18T13:20:35;11.70;;;9.27;;
4359;SDS011;2193;47.980;7.660;2022-08-18T13:23:00;10.90;;;9.80;;
4359;SDS011;2193;47.980;7.660;2022-08-18T13:25:26;10.67;;;9.67;;
4359;SDS011;2193;47.980;7.660;2022-08-18T13:27:51;10.03;;;9.00;;
4359;SDS011;2193;47.980;7.660;2022-08-18T13:30:16;10.67;;;9.20;;
4359;SDS011;2193;47.980;7.660;2022-08-18T13:32:42;13.37;;;9.37;;
4359;SDS011;2193;47.980;7.660;2022-08-18T13:35:07;11.10;;;9.07;;
4359;SDS011;2193;47.980;7.660;2022-08-18T13:37:32;11.40;;;9.23;;
4359;SDS011;2193;47.980;7.660;2022-08-18T13:39:58;12.10;;;9.70;;
4359;SDS011;2193;47.980;7.660;2022-08-18T13:42:24;11.80;;;9.43;;
4359;SDS011;2193;47.980;7.660;2022-08-18T13:44:49;13.50;;;10.47;;
4359;SDS011;2193;47.980;7.660;2022-08-18T13:47:14;12.40;;;10.50;;
4359;SDS011;2193;47.980;7.660;2022-08-18T13:49:40;11.13;;;9.50;;
4359;SDS011;2193;47.980;7.660;2022-08-18T13:52:05;11.50;;;10.30;;
4359;SDS011;2193;47.980;7.660;2022-08-18T13:54:31;11.50;;;10.30;;
4359;SDS011;2193;47.980;7.660;2022-08-18T13:56:58;10.80;;;9.70;;
4359;SDS011;2193;47.980;7.660;2022-08-18T13:59:24;11.50;;;10.07;;
4359;SDS011;2193;47.980;7.660;2022-08-18T14:01:55;10.20;;;9.20;;
4359;SDS011;2193;47.980;7.660;2022-08-18T14:04:21;12.13;;;10.00;;
4359;SDS011;2193;47.980;7.660;2022-08-18T14:06:46;15.63;;;9.60;;
4359;SDS011;2193;47.980;7.660;2022-08-18T14:09:11;10.90;;;9.80;;
4359;SDS011;2193;47.980;7.660;2022-08-18T14:11:37;10.77;;;9.63;;
4359;SDS011;2193;47.980;7.660;2022-08-18T14:14:03;11.97;;;10.67;;
4359;SDS011;2193;47.980;7.660;2022-08-18T14:16:28;11.07;;;9.40;;
4359;SDS011;2193;47.980;7.660;2022-08-18T14:18:54;11.13;;;9.83;;
4359;SDS011;2193;47.980;7.660;2022-08-18T14:21:42;13.40;;;9.40;;
4359;SDS011;2193;47.980;7.660;2022-08-18T14:24:27;10.43;;;8.80;;
4359;SDS011;2193;47.980;7.660;2022-08-18T14:27:10;11.23;;;9.47;;
4359;SDS011;2193;47.980;7.660;2022-08-18T14:29:36;10.70;;;9.70;;
4359;SDS011;2193;47.980;7.660;2022-08-18T14:32:02;11.10;;;10.00;;
4359;SDS011;2193;47.980;7.660;2022-08-18T14:34:27;10.40;;;9.40;;
4359;SDS011;2193;47.980;7.660;2022-08-18T14:36:52;12.47;;;10.40;;
4359;SDS011;2193;47.980;7.660;2022-08-18T14:39:17;11.23;;;10.13;;
4359;SDS011;2193;47.980;7.660;2022-08-18T14:41:43;10.10;;;8.90;;
4359;SDS011;2193;47.980;7.660;2022-08-18T14:44:08;10.23;;;9.33;;
4359;SDS011;2193;47.980;7.660;2022-08-18T14:46:35;10.37;;;8.80;;
4359;SDS011;2193;47.980;7.660;2022-08-18T14:49:00;10.07;;;9.07;;
4359;SDS011;2193;47.980;7.660;2022-08-18T14:51:25;16.53;;;9.00;;
4359;SDS011;2193;47.980;7.660;2022-08-18T14:53:50;10.90;;;9.80;;
4359;SDS011;2193;47.980;7.660;2022-08-18T14:56:16;11.20;;;9.40;;
4359;SDS011;2193;47.980;7.660;2022-08-18T14:58:41;10.10;;;9.10;;
4359;SDS011;2193;47.980;7.660;2022-08-18T15:01:07;9.60;;;8.60;;
4359;SDS011;2193;47.980;7.660;2022-08-18T15:03:33;13.37;;;10.20;;
4359;SDS011;2193;47.980;7.660;2022-08-18T15:05:59;10.47;;;9.27;;
4359;SDS011;2193;47.980;7.660;2022-08-18T15:08:25;12.07;;;10.73;;
4359;SDS011;2193;47.980;7.660;2022-08-18T15:10:50;11.90;;;10.80;;
4359;SDS011;2193;47.980;7.660;2022-08-18T15:13:15;12.00;;;10.60;;
4359;SDS011;2193;47.980;7.660;2022-08-18T15:15:41;11.40;;;10.30;;
4359;SDS011;2193;47.980;7.660;2022-08-18T15:18:08;14.60;;;10.40;;
4359;SDS011;2193;47.980;7.660;2022-08-18T15:20:33;11.80;;;10.70;;
4359;SDS011;2193;47.980;7.660;2022-08-18T15:23:18;12.60;;;11.30;;
4359;SDS011;2193;47.980;7.660;2022-08-18T15:26:02;12.90;;;11.40;;
4359;SDS011;2193;47.980;7.660;2022-08-18T15:28:27;13.37;;;11.97;;
4359;SDS011;2193;47.980;7.660;2022-08-18T15:30:52;13.33;;;11.20;;
4359;SDS011;2193;47.980;7.660;2022-08-18T15:33:18;12.53;;;11.23;;
4359;SDS011;2193;47.980;7.660;2022-08-18T15:35:45;13.30;;;10.73;;
4359;SDS011;2193;47.980;7.660;2022-08-18T15:38:12;14.00;;;12.60;;
4359;SDS011;2193;47.980;7.660;2022-08-18T15:40:37;13.63;;;12.20;;
4359;SDS011;2193;47.980;7.660;2022-08-18T15:43:10;13.60;;;12.10;;
4359;SDS011;2193;47.980;7.660;2022-08-18T15:45:37;13.50;;;12.20;;
4359;SDS011;2193;47.980;7.660;2022-08-18T15:48:04;13.47;;;11.10;;
4359;SDS011;2193;47.980;7.660;2022-08-18T15:50:29;11.67;;;10.50;;
4359;SDS011;2193;47.980;7.660;2022-08-18T15:52:59;11.67;;;10.47;;
4359;SDS011;2193;47.980;7.660;2022-08-18T15:55:26;13.47;;;11.43;;
4359;SDS011;2193;47.980;7.660;2022-08-18T15:57:51;12.07;;;10.87;;
4359;SDS011;2193;47.980;7.660;2022-08-18T16:00:18;11.60;;;10.40;;
4359;SDS011;2193;47.980;7.660;2022-08-18T16:02:55;14.03;;;10.90;;
4359;SDS011;2193;47.980;7.660;2022-08-18T16:05:21;11.93;;;10.70;;
4359;SDS011;2193;47.980;7.660;2022-08-18T16:07:47;12.90;;;11.70;;
4359;SDS011;2193;47.980;7.660;2022-08-18T16:10:14;12.43;;;11.13;;
4359;SDS011;2193;47.980;7.660;2022-08-18T16:12:39;12.73;;;11.43;;
4359;SDS011;2193;47.980;7.660;2022-08-18T16:15:05;11.93;;;10.83;;
4359;SDS011;2193;47.980;7.660;2022-08-18T16:17:31;12.93;;;10.90;;
4359;SDS011;2193;47.980;7.660;2022-08-18T16:19:56;12.30;;;11.10;;
4359;SDS011;2193;47.980;7.660;2022-08-18T16:22:22;12.50;;;11.20;;
4359;SDS011;2193;47.980;7.660;2022-08-18T16:24:47;12.70;;;11.40;;
4359;SDS011;2193;47.980;7.660;2022-08-18T16:27:12;11.63;;;10.43;;
4359;SDS011;2193;47.980;7.660;2022-08-18T16:29:37;13.97;;;11.73;;
4359;SDS011;2193;47.980;7.660;2022-08-18T16:32:03;11.53;;;10.43;;
4359;SDS011;2193;47.980;7.660;2022-08-18T16:34:28;12.30;;;11.07;;
4359;SDS011;2193;47.980;7.660;2022-08-18T16:36:54;12.47;;;11.30;;
4359;SDS011;2193;47.980;7.660;2022-08-18T16:39:20;13.20;;;11.90;;
4359;SDS011;2193;47.980;7.660;2022-08-18T16:41:45;14.30;;;12.80;;
4359;SDS011;2193;47.980;7.660;2022-08-18T16:44:11;12.57;;;11.27;;
4359;SDS011;2193;47.980;7.660;2022-08-18T16:46:36;13.00;;;11.63;;
4359;SDS011;2193;47.980;7.660;2022-08-18T16:49:01;12.07;;;10.87;;
4359;SDS011;2193;47.980;7.660;2022-08-18T16:51:31;13.70;;;12.40;;
4359;SDS011;2193;47.980;7.660;2022-08-18T16:53:57;13.03;;;11.57;;
4359;SDS011;2193;47.980;7.660;2022-08-18T16:56:24;13.57;;;11.70;;
4359;SDS011;2193;47.980;7.660;2022-08-18T16:58:50;12.67;;;11.43;;
4359;SDS011;2193;47.980;7.660;2022-08-18T17:01:34;12.00;;;10.90;;
4359;SDS011;2193;47.980;7.660;2022-08-18T17:04:20;15.13;;;11.80;;
4359;SDS011;2193;47.980;7.660;2022-08-18T17:06:46;13.80;;;12.40;;